Time;durP1;ratioP1;P1;durP2;ratioP2;P2;SDS_P1;SDS_P2;PMS_P1;PMS_P2;Temp;Humidity;BMP_temperature;BMP_pressure;BME280_temperature;BME280_humidity;BME280_pressure;Samples;Min_cycle;Max_cycle;Signal;HPM_P1;HPM_P2
2021/07/02 00:00:13;;;;;;;15.57;7.63;;;;;;;18.96;100.00;96306.53;5005061;28;20053;-62
2021/07/02 00:02:43;;;;;;;18.30;8.52;;;;;;;18.90;100.00;96305.50;5002861;28;20511;-63
2021/07/02 00:05:10;;;;;;;21.40;8.57;;;;;;;18.77;100.00;96297.03;5005125;28;20065;-62
2021/07/02 00:07:35;;;;;;;15.43;8.50;;;;;;;18.64;100.00;96265.31;5005274;28;20076;-62
2021/07/02 00:10:03;;;;;;;14.50;9.43;;;;;;;18.72;100.00;96272.31;5003063;28;20323;-65
2021/07/02 00:12:28;;;;;;;18.13;8.85;;;;;;;18.95;100.00;96307.78;5019365;28;20037;-64
2021/07/02 00:14:54;;;;;;;18.83;8.63;;;;;;;18.89;100.00;96293.47;5003115;28;20054;-65
2021/07/02 00:17:19;;;;;;;17.15;8.13;;;;;;;18.57;100.00;96268.31;5004609;28;20080;-65
2021/07/02 00:19:45;;;;;;;16.77;8.38;;;;;;;18.61;100.00;96266.19;5004904;28;20064;-64
2021/07/02 00:22:10;;;;;;;13.25;8.38;;;;;;;18.76;100.00;96295.44;5004604;28;20037;-63
2021/07/02 00:24:36;;;;;;;20.88;8.48;;;;;;;18.76;100.00;96284.22;5005278;28;20030;-63
2021/07/02 00:27:02;;;;;;;17.73;9.05;;;;;;;18.68;100.00;96271.63;5009860;28;20040;-64
2021/07/02 00:29:28;;;;;;;17.45;8.32;;;;;;;18.79;100.00;96294.59;5024440;28;20044;-63
2021/07/02 00:31:54;;;;;;;15.45;9.15;;;;;;;18.69;100.00;96267.59;5024263;28;20042;-66
2021/07/02 00:34:19;;;;;;;14.98;8.90;;;;;;;18.50;100.00;96248.06;5024556;28;20520;-64
2021/07/02 00:36:45;;;;;;;21.20;10.23;;;;;;;18.72;100.00;96289.16;5024264;28;20503;-64
2021/07/02 00:39:11;;;;;;;22.50;9.40;;;;;;;18.28;100.00;96231.00;5022342;28;20606;-64
2021/07/02 00:41:36;;;;;;;18.88;8.07;;;;;;;18.56;100.00;96291.97;5022250;28;20117;-64
2021/07/02 00:44:02;;;;;;;18.17;8.75;;;;;;;18.53;100.00;96281.63;5022718;28;20029;-63
2021/07/02 00:46:28;;;;;;;13.82;8.77;;;;;;;18.49;100.00;96286.56;5022791;28;20065;-63
2021/07/02 00:48:54;;;;;;;14.15;8.48;;;;;;;18.51;100.00;96284.09;5022776;28;20516;-63
2021/07/02 00:51:20;;;;;;;16.77;7.80;;;;;;;18.48;100.00;96296.19;5023976;28;20469;-63
2021/07/02 00:53:46;;;;;;;13.13;7.80;;;;;;;18.32;100.00;96298.97;5022514;28;20584;-64
2021/07/02 00:56:16;;;;;;;12.95;8.18;;;;;;;18.29;100.00;96294.25;5022560;28;20040;-64
2021/07/02 00:58:41;;;;;;;21.85;8.82;;;;;;;18.11;100.00;96277.88;5023924;28;20045;-64
2021/07/02 01:01:14;;;;;;;18.33;9.27;;;;;;;18.23;100.00;96301.63;5022758;28;20045;-64
2021/07/02 01:03:40;;;;;;;16.92;9.00;;;;;;;17.79;100.00;96232.25;5022699;28;20068;-64
2021/07/02 01:06:07;;;;;;;14.65;8.77;;;;;;;18.27;100.00;96302.34;5022497;28;20025;-65
2021/07/02 01:08:32;;;;;;;19.02;9.05;;;;;;;18.22;100.00;96305.66;5024014;28;20045;-64
2021/07/02 01:10:58;;;;;;;16.55;10.73;;;;;;;17.86;100.00;96260.09;5021656;28;20037;-64
2021/07/02 01:13:23;;;;;;;13.27;9.48;;;;;;;17.93;100.00;96299.94;5023937;28;20045;-64
2021/07/02 01:15:53;;;;;;;12.43;9.38;;;;;;;18.01;100.00;96301.34;5022188;28;20424;-64
2021/07/02 01:18:20;;;;;;;16.48;8.82;;;;;;;18.02;100.00;96302.13;5023656;28;20172;-64
2021/07/02 01:20:53;;;;;;;14.88;8.48;;;;;;;17.95;100.00;96302.31;5022585;28;20060;-64
2021/07/02 01:23:20;;;;;;;18.48;9.32;;;;;;;17.79;100.00;96282.66;5022124;28;20496;-64
2021/07/02 01:25:46;;;;;;;18.40;10.90;;;;;;;17.87;100.00;96306.50;5021989;28;20025;-64
2021/07/02 01:28:14;;;;;;;17.90;10.07;;;;;;;16.71;100.00;96173.91;5018293;28;20037;-64
2021/07/02 01:30:41;;;;;;;24.25;10.60;;;;;;;17.66;100.00;96301.38;5018310;28;20068;-64
2021/07/02 01:33:07;;;;;;;18.92;9.05;;;;;;;17.22;100.00;96238.31;5001847;28;20029;-63
2021/07/02 01:35:33;;;;;;;17.50;9.52;;;;;;;17.52;100.00;96298.88;5002181;28;20428;-63
2021/07/02 01:37:59;;;;;;;17.08;8.95;;;;;;;17.50;100.00;96312.53;5003665;28;20075;-63
2021/07/02 01:40:25;;;;;;;17.20;9.60;;;;;;;17.42;100.00;96311.88;5004326;28;20069;-63
2021/07/02 01:42:50;;;;;;;18.45;9.57;;;;;;;17.18;100.00;96259.22;5003893;28;20033;-64
2021/07/02 01:45:16;;;;;;;17.25;9.38;;;;;;;17.52;100.00;96298.88;5001818;28;20050;-64
2021/07/02 01:47:42;;;;;;;16.88;9.60;;;;;;;17.57;100.00;96315.19;5003467;28;20033;-63
2021/07/02 01:50:08;;;;;;;10.85;8.02;;;;;;;17.21;100.00;96247.97;5001842;28;20037;-64
2021/07/02 01:52:33;;;;;;;19.35;8.85;;;;;;;17.06;100.00;96234.66;5003388;28;20588;-64
2021/07/02 01:54:59;;;;;;;13.65;9.05;;;;;;;17.40;100.00;96282.72;5002169;28;20069;-64
2021/07/02 01:57:27;;;;;;;19.73;8.70;;;;;;;17.40;100.00;96293.94;5001660;28;20029;-64
2021/07/02 01:59:54;;;;;;;18.42;8.55;;;;;;;17.05;100.00;96249.91;5002448;28;20548;-64
2021/07/02 02:02:21;;;;;;;11.95;7.82;;;;;;;17.28;100.00;96291.78;5001401;28;20022;-64
2021/07/02 02:04:47;;;;;;;18.42;8.70;;;;;;;16.99;100.00;96241.22;5002015;28;20129;-65
2021/07/02 02:07:13;;;;;;;19.33;8.40;;;;;;;17.09;100.00;96270.19;5001561;28;20033;-64
2021/07/02 02:09:39;;;;;;;13.10;7.93;;;;;;;17.09;100.00;96286.97;5001490;28;20148;-64
2021/07/02 02:12:05;;;;;;;16.95;8.50;;;;;;;16.84;100.00;96283.88;5002225;28;20034;-64
2021/07/02 02:14:30;;;;;;;12.02;8.23;;;;;;;16.96;100.00;96274.88;5003298;28;20054;-65
2021/07/02 02:16:57;;;;;;;18.90;8.73;;;;;;;17.13;100.00;96287.72;5002228;28;20425;-64
2021/07/02 02:19:22;;;;;;;16.05;7.97;;;;;;;16.82;100.00;96236.00;5002021;28;20045;-64
2021/07/02 02:21:48;;;;;;;14.93;8.60;;;;;;;17.19;100.00;96283.97;5003051;28;20033;-64
2021/07/02 02:24:14;;;;;;;16.02;7.97;;;;;;;16.95;100.00;96256.50;5005408;28;20041;-64
2021/07/02 02:26:40;;;;;;;15.85;8.55;;;;;;;16.54;100.00;96257.72;5005448;28;20030;-64
2021/07/02 02:29:07;;;;;;;16.55;8.45;;;;;;;17.00;100.00;96297.97;5005753;28;20576;-64
2021/07/02 02:31:32;;;;;;;13.82;7.80;;;;;;;16.88;100.00;96290.22;5005783;28;20029;-64
2021/07/02 02:33:58;;;;;;;14.10;7.60;;;;;;;16.73;100.00;96260.94;5005321;28;20519;-64
2021/07/02 02:36:24;;;;;;;16.23;8.00;;;;;;;16.92;100.00;96304.91;5005461;28;20037;-64
2021/07/02 02:38:50;;;;;;;15.60;8.13;;;;;;;16.80;100.00;96294.38;5005762;28;20038;-64
2021/07/02 02:41:15;;;;;;;19.77;8.20;;;;;;;14.81;100.00;95965.22;5005118;28;20037;-63
2021/07/02 02:43:41;;;;;;;11.90;7.70;;;;;;;16.86;100.00;96293.44;5006743;28;20042;-63
2021/07/02 02:46:06;;;;;;;14.93;7.05;;;;;;;16.87;100.00;96294.22;5005197;28;20026;-63
2021/07/02 02:48:32;;;;;;;14.48;7.40;;;;;;;16.71;100.00;96280.16;5004741;28;20037;-63
2021/07/02 02:50:59;;;;;;;15.60;8.60;;;;;;;16.63;100.00;96268.31;5005266;28;20030;-63
2021/07/02 02:53:24;;;;;;;12.38;7.28;;;;;;;16.81;100.00;96281.97;5005199;28;20030;-64
2021/07/02 02:55:50;;;;;;;14.18;8.63;;;;;;;17.04;100.00;96309.88;5004950;28;20056;-63
2021/07/02 02:58:15;;;;;;;19.38;8.32;;;;;;;17.09;100.00;96317.75;5004406;28;20073;-64
2021/07/02 03:00:41;;;;;;;14.27;7.53;;;;;;;17.08;100.00;96316.19;5004398;28;20483;-64
2021/07/02 03:03:07;;;;;;;13.10;7.28;;;;;;;17.21;100.00;96325.53;5004619;28;20044;-63
2021/07/02 03:05:32;;;;;;;15.98;7.68;;;;;;;17.29;100.00;96338.16;5004780;28;20041;-63
2021/07/02 03:07:58;;;;;;;13.15;7.25;;;;;;;17.40;100.00;96327.53;5004368;28;20068;-64
2021/07/02 03:10:24;;;;;;;21.83;7.45;;;;;;;17.19;100.00;96280.38;5004669;28;20038;-63
2021/07/02 03:12:51;;;;;;;12.00;7.68;;;;;;;17.39;100.00;96320.34;5006145;28;20036;-63
2021/07/02 03:15:17;;;;;;;14.35;7.45;;;;;;;17.40;100.00;96321.94;5004645;28;20089;-64
2021/07/02 03:17:42;;;;;;;12.07;7.35;;;;;;;17.36;100.00;96296.00;5005931;28;20030;-63
2021/07/02 03:20:10;;;;;;;15.10;8.18;;;;;;;16.93;100.00;96214.19;5004518;28;20127;-62
2021/07/02 03:22:37;;;;;;;11.77;7.10;;;;;;;17.66;100.00;96320.97;5004294;28;20034;-63
2021/07/02 03:25:05;;;;;;;11.95;7.50;;;;;;;17.76;100.00;96331.97;5005746;28;20056;-63
2021/07/02 03:27:31;;;;;;;17.40;7.45;;;;;;;17.94;100.00;96328.75;5004157;28;20081;-63
2021/07/02 03:29:57;;;;;;;17.33;7.90;;;;;;;18.00;100.00;96329.81;5020796;28;20038;-63
2021/07/02 03:32:23;;;;;;;13.07;6.90;;;;;;;17.60;100.00;96270.31;5004739;28;20026;-64
2021/07/02 03:34:48;;;;;;;16.85;7.32;;;;;;;18.12;99.94;96329.13;5003368;28;20060;-64
2021/07/02 03:37:16;;;;;;;11.48;7.80;;;;;;;18.01;98.79;96286.53;5020784;28;20133;-64
2021/07/02 03:39:42;;;;;;;11.80;7.20;;;;;;;18.35;98.02;96333.78;5006017;28;20038;-64
2021/07/02 03:42:08;;;;;;;14.57;7.63;;;;;;;18.32;99.52;96332.63;5004209;28;20528;-64
2021/07/02 03:44:34;;;;;;;14.85;6.97;;;;;;;18.15;99.06;96307.84;5004345;28;20037;-64
2021/07/02 03:47:00;;;;;;;17.55;7.28;;;;;;;18.37;100.00;96334.91;5005773;28;20500;-64
2021/07/02 03:49:26;;;;;;;13.05;7.65;;;;;;;18.51;99.44;96333.81;5004915;28;20048;-64
2021/07/02 03:51:52;;;;;;;15.13;6.93;;;;;;;18.43;97.86;96310.75;5004048;28;20026;-65
2021/07/02 03:54:18;;;;;;;12.45;7.15;;;;;;;18.66;97.71;96341.41;5003987;28;20030;-63
2021/07/02 03:59:28;;;;;;;17.85;8.52;;;;;;;18.66;97.60;96296.53;5005743;28;20137;-63
2021/07/02 04:01:54;;;;;;;12.30;7.25;;;;;;;18.62;97.22;96272.59;5004167;28;20029;-64
2021/07/02 04:04:19;;;;;;;13.95;7.38;;;;;;;19.24;95.88;96343.03;5004592;28;20068;-65
2021/07/02 04:06:45;;;;;;;15.95;8.10;;;;;;;19.39;96.49;96344.22;5004104;28;20579;-64
2021/07/02 04:09:10;;;;;;;21.08;8.88;;;;;;;19.55;94.89;96349.78;5005465;28;20572;-64
2021/07/02 04:11:36;;;;;;;18.10;7.95;;;;;;;18.79;94.06;96220.81;5005150;28;20038;-64
2021/07/02 04:14:02;;;;;;;13.75;7.88;;;;;;;19.89;93.16;96345.56;5003758;28;20034;-65
2021/07/02 04:16:27;;;;;;;22.13;9.68;;;;;;;19.88;91.47;96318.72;5003680;28;20042;-66
2021/07/02 04:18:53;;;;;;;15.50;7.55;;;;;;;20.26;90.82;96353.28;5005206;28;20045;-64
2021/07/02 04:21:18;;;;;;;19.83;8.32;;;;;;;20.41;90.84;96357.19;5003688;28;20053;-64
2021/07/02 04:23:44;;;;;;;18.48;9.40;;;;;;;20.48;92.26;96359.81;5005580;28;20041;-64
2021/07/02 04:26:09;;;;;;;20.10;9.50;;;;;;;20.67;92.09;96370.03;5004752;28;20038;-63
2021/07/02 04:28:35;;;;;;;18.10;8.85;;;;;;;20.85;92.58;96353.31;5019549;28;20408;-63
2021/07/02 04:31:00;;;;;;;23.00;10.35;;;;;;;21.00;89.62;96346.00;5002852;28;20057;-62
2021/07/02 04:33:26;;;;;;;15.43;8.05;;;;;;;21.15;89.91;96361.13;5004499;28;20038;-63
2021/07/02 04:35:51;;;;;;;22.52;9.38;;;;;;;20.79;92.43;96366.38;5003409;28;20045;-62
2021/07/02 04:38:17;;;;;;;16.02;9.63;;;;;;;20.78;90.73;96364.81;5004609;28;20476;-62
2021/07/02 04:40:43;;;;;;;16.58;9.55;;;;;;;20.66;90.87;96340.31;5003547;28;20038;-62
2021/07/02 04:43:08;;;;;;;14.05;8.23;;;;;;;21.03;89.36;96370.41;5003129;28;20026;-62
2021/07/02 04:45:33;;;;;;;16.38;8.65;;;;;;;21.01;90.12;96372.91;5002490;28;20037;-63
2021/07/02 04:47:59;;;;;;;17.88;8.80;;;;;;;21.08;90.20;96378.28;5016623;28;20072;-63
2021/07/02 04:50:25;;;;;;;15.15;8.27;;;;;;;20.97;89.05;96366.63;5021195;28;20098;-62
2021/07/02 04:52:50;;;;;;;17.42;8.18;;;;;;;21.14;87.00;96386.94;5021069;28;20191;-63
2021/07/02 04:55:16;;;;;;;15.52;8.68;;;;;;;21.13;88.41;96351.56;5022659;28;20424;-63
2021/07/02 04:57:41;;;;;;;12.70;8.25;;;;;;;21.32;86.98;96354.09;5020858;28;20033;-63
2021/07/02 05:00:08;;;;;;;19.60;8.25;;;;;;;21.66;84.87;96390.69;5023227;28;20068;-63
2021/07/02 05:02:33;;;;;;;20.48;8.63;;;;;;;21.53;82.84;96352.53;5008831;28;20536;-64
2021/07/02 05:04:59;;;;;;;17.23;7.80;;;;;;;21.60;82.84;96344.59;5021943;28;20475;-64
2021/07/02 05:07:25;;;;;;;14.23;7.68;;;;;;;22.03;82.35;96394.56;5022111;28;20041;-65
2021/07/02 05:09:51;;;;;;;17.23;8.77;;;;;;;22.11;82.72;96398.69;5023752;28;20420;-63
2021/07/02 05:12:16;;;;;;;15.07;8.80;;;;;;;22.21;85.66;96398.25;5022080;28;20030;-63
2021/07/02 05:14:42;;;;;;;15.77;9.20;;;;;;;22.28;86.42;96403.66;5023640;28;20392;-65
2021/07/02 05:17:07;;;;;;;15.75;8.13;;;;;;;22.10;83.08;96386.59;5023956;28;20450;-63
2021/07/02 05:19:33;;;;;;;16.95;8.95;;;;;;;21.94;81.51;96372.72;5022117;28;20549;-63
2021/07/02 05:21:59;;;;;;;27.48;10.60;;;;;;;21.59;84.25;96390.16;5022380;28;20073;-63
2021/07/02 05:24:24;;;;;;;15.43;8.75;;;;;;;21.26;83.19;96333.38;5023969;28;20568;-64
2021/07/02 05:26:50;;;;;;;13.20;9.02;;;;;;;21.32;85.59;96331.56;5023327;28;20112;-63
2021/07/02 05:29:15;;;;;;;16.90;8.75;;;;;;;22.24;82.94;96428.38;5018356;28;20080;-64
2021/07/02 05:31:41;;;;;;;15.75;8.30;;;;;;;22.61;81.15;96425.75;5001836;28;20030;-63
2021/07/02 05:34:06;;;;;;;18.13;8.23;;;;;;;22.82;77.10;96419.25;5003837;28;20045;-63
2021/07/02 05:36:32;;;;;;;19.35;8.38;;;;;;;22.48;80.19;96331.91;5002182;28;20032;-63
2021/07/02 05:38:58;;;;;;;14.05;8.13;;;;;;;23.15;76.70;96420.28;5002184;28;20052;-64
2021/07/02 05:41:23;;;;;;;17.50;8.07;;;;;;;23.25;78.88;96414.22;5002100;28;20034;-64
2021/07/02 05:43:49;;;;;;;12.95;8.82;;;;;;;23.59;76.77;96432.94;5003305;28;20042;-64
2021/07/02 05:46:15;;;;;;;12.45;7.45;;;;;;;23.76;73.40;96434.19;5001709;28;20092;-64
2021/07/02 05:48:41;;;;;;;14.75;8.73;;;;;;;23.80;71.70;96435.63;5001717;28;20156;-63
2021/07/02 05:51:07;;;;;;;15.13;9.45;;;;;;;23.99;73.61;96432.81;5003379;28;20037;-64
2021/07/02 05:53:33;;;;;;;13.50;7.68;;;;;;;23.90;71.84;96385.47;5001468;28;20041;-64
2021/07/02 05:55:58;;;;;;;16.80;8.88;;;;;;;24.35;71.18;96427.06;5018912;28;20076;-64
2021/07/02 05:58:24;;;;;;;13.35;8.15;;;;;;;24.60;69.97;96427.47;5027108;28;20053;-64
2021/07/02 06:00:49;;;;;;;17.67;9.30;;;;;;;24.40;72.79;96390.41;5027193;28;20040;-64
2021/07/02 06:03:15;;;;;;;11.55;8.38;;;;;;;24.55;72.90;96390.53;5024977;28;20439;-64
2021/07/02 06:05:41;;;;;;;13.20;8.27;;;;;;;24.59;72.01;96391.91;5027005;28;20056;-64
2021/07/02 06:08:07;;;;;;;15.18;8.38;;;;;;;24.81;69.35;96409.47;5025180;28;20033;-63
2021/07/02 06:10:32;;;;;;;13.55;8.15;;;;;;;24.86;68.83;96417.34;5027395;28;20037;-61
2021/07/02 06:12:58;;;;;;;14.07;8.45;;;;;;;24.87;67.88;96418.09;5025040;28;20040;-62
2021/07/02 06:15:23;;;;;;;14.40;9.00;;;;;;;24.81;68.01;96369.81;5027181;28;20049;-64
2021/07/02 06:17:50;;;;;;;11.15;8.13;;;;;;;25.27;64.80;96424.19;5025475;28;20144;-64
2021/07/02 06:20:17;;;;;;;16.58;8.52;;;;;;;25.40;64.37;96409.78;5025904;28;20542;-64
2021/07/02 06:22:43;;;;;;;15.82;8.50;;;;;;;25.51;63.74;96422.16;5025331;28;20029;-64
2021/07/02 06:25:10;;;;;;;12.20;8.15;;;;;;;25.56;61.06;96415.78;5026972;28;20045;-64
2021/07/02 06:27:36;;;;;;;14.63;7.72;;;;;;;25.57;61.91;96414.53;5023006;28;20045;-64
2021/07/02 06:30:04;;;;;;;14.80;7.95;;;;;;;25.56;61.77;96420.72;5006633;28;20501;-64
2021/07/02 06:32:29;;;;;;;11.40;7.78;;;;;;;25.62;61.04;96387.56;5005420;28;20041;-64
2021/07/02 06:34:55;;;;;;;12.18;8.38;;;;;;;25.66;60.55;96359.78;5005951;28;20038;-63
2021/07/02 06:37:20;;;;;;;11.23;8.07;;;;;;;26.13;59.57;96416.47;5005623;28;20147;-63
2021/07/02 06:39:46;;;;;;;11.95;8.15;;;;;;;25.94;59.26;96380.97;5005665;28;20037;-64
2021/07/02 06:42:11;;;;;;;9.95;7.95;;;;;;;26.22;58.69;96413.53;5006603;28;20026;-64
2021/07/02 06:44:37;;;;;;;16.52;8.10;;;;;;;26.08;57.08;96374.53;5005018;28;20038;-63
2021/07/02 06:47:03;;;;;;;23.77;8.52;;;;;;;26.38;61.40;96410.97;5010998;28;20033;-66
2021/07/02 06:49:29;;;;;;;12.32;7.82;;;;;;;26.58;58.98;96408.22;5016003;28;20033;-60
2021/07/02 06:51:55;;;;;;;16.58;7.93;;;;;;;26.45;56.13;96370.00;5017872;28;20032;-66
2021/07/02 06:54:20;;;;;;;12.02;7.93;;;;;;;26.57;59.06;96403.03;5023094;28;20079;-65
2021/07/02 06:57:02;;;;;;;13.05;8.45;;;;;;;26.51;57.91;96356.69;5022740;28;20036;-63
2021/07/02 06:59:29;;;;;;;11.43;7.68;;;;;;;26.34;54.60;96307.34;5016574;28;20040;-61
2021/07/02 07:01:55;;;;;;;16.05;8.57;;;;;;;26.69;57.62;96384.91;5026082;28;20051;-64
2021/07/02 07:04:21;;;;;;;15.82;8.80;;;;;;;27.00;58.44;96376.59;5026276;28;20484;-61
2021/07/02 07:06:46;;;;;;;16.05;8.38;;;;;;;27.01;57.25;96360.31;5020937;28;20037;-65
2021/07/02 07:09:12;;;;;;;13.05;8.52;;;;;;;27.40;57.99;96390.91;5004208;28;20477;-64
2021/07/02 07:11:37;;;;;;;12.80;8.48;;;;;;;27.59;58.67;96389.34;5009578;28;20033;-66
2021/07/02 07:14:03;;;;;;;14.80;7.55;;;;;;;27.61;54.38;96398.16;5008905;28;20045;-63
2021/07/02 07:16:29;;;;;;;13.70;7.95;;;;;;;27.73;55.83;96388.47;5004384;28;20551;-64
2021/07/02 07:18:55;;;;;;;15.00;7.85;;;;;;;27.70;54.71;96389.47;5011174;28;20044;-67
2021/07/02 07:21:21;;;;;;;16.33;7.65;;;;;;;27.86;55.63;96414.50;5010369;28;20496;-63
2021/07/02 07:23:46;;;;;;;14.20;7.93;;;;;;;27.95;54.08;96388.75;5024758;28;20053;-68
2021/07/02 07:26:12;;;;;;;11.45;7.57;;;;;;;27.64;53.53;96345.94;5023868;28;20336;-69
2021/07/02 07:28:38;;;;;;;10.88;7.38;;;;;;;27.63;51.03;96332.97;5006135;28;20034;-64
2021/07/02 07:31:05;;;;;;;12.45;6.85;;;;;;;27.91;50.50;96371.13;5008333;28;20046;-62
2021/07/02 07:33:32;;;;;;;15.55;7.72;;;;;;;28.12;51.00;96392.56;5006292;28;20244;-63
2021/07/02 07:35:57;;;;;;;10.80;6.93;;;;;;;27.75;49.11;96314.75;5004433;28;20037;-60
2021/07/02 07:38:22;;;;;;;15.35;7.80;;;;;;;28.28;51.55;96376.91;5019643;28;20424;-64
2021/07/02 07:40:48;;;;;;;16.40;9.05;;;;;;;27.92;50.50;96304.34;5025789;28;20436;-61
2021/07/02 07:43:13;;;;;;;10.75;7.28;;;;;;;28.17;49.12;96342.63;5005664;28;20025;-65
2021/07/02 07:45:39;;;;;;;13.27;7.32;;;;;;;27.72;50.69;96386.91;5022992;28;20041;-64
2021/07/02 07:48:05;;;;;;;13.38;7.57;;;;;;;27.96;50.19;96396.00;5015642;28;20037;-67
2021/07/02 07:50:40;;;;;;;10.50;7.95;;;;;;;27.84;52.14;96404.88;5013664;28;20436;-61
2021/07/02 07:53:06;;;;;;;18.15;7.50;;;;;;;27.46;52.57;96288.53;5011288;28;20030;-62
2021/07/02 07:55:31;;;;;;;10.43;7.47;;;;;;;28.42;50.78;96401.69;5003941;28;20073;-61
2021/07/02 07:57:58;;;;;;;12.20;7.63;;;;;;;28.60;49.08;96403.41;5016059;28;20034;-64
2021/07/02 08:00:24;;;;;;;11.93;6.78;;;;;;;28.51;50.94;96372.22;5025254;28;20042;-61
2021/07/02 08:02:50;;;;;;;11.05;7.68;;;;;;;27.48;49.36;96229.06;5022353;28;20030;-66
2021/07/02 08:05:16;;;;;;;12.90;8.00;;;;;;;28.93;48.60;96400.81;5017568;28;20371;-61
2021/07/02 08:07:43;;;;;;;18.58;9.38;;;;;;;28.75;50.70;96406.91;5020790;28;20075;-60
2021/07/02 08:10:11;;;;;;;25.08;12.32;;;;;;;28.33;50.28;96379.03;5008039;28;20036;-66
2021/07/02 08:12:40;;;;;;;21.65;10.52;;;;;;;28.55;48.00;96378.50;5019143;28;20505;-62
2021/07/02 08:15:10;;;;;;;14.07;9.75;;;;;;;28.41;47.70;96373.66;5003445;28;20505;-63
2021/07/02 08:17:36;;;;;;;13.75;7.78;;;;;;;28.90;48.07;96404.69;5007246;28;20041;-68
2021/07/02 08:20:04;;;;;;;11.43;8.23;;;;;;;29.17;46.66;96412.69;5010793;28;20061;-65
2021/07/02 08:22:30;;;;;;;15.10;8.50;;;;;;;29.09;47.45;96400.19;5012710;28;20033;-62
2021/07/02 08:24:56;;;;;;;23.63;14.77;;;;;;;29.00;47.63;96363.28;5011272;28;20045;-66
2021/07/02 08:27:24;;;;;;;14.88;8.07;;;;;;;29.29;47.66;96352.31;5011355;28;20040;-63
2021/07/02 08:29:50;;;;;;;14.68;8.30;;;;;;;29.25;46.61;96379.53;5029641;28;20080;-62
2021/07/02 08:32:16;;;;;;;15.75;7.57;;;;;;;28.26;47.30;96410.03;5011061;28;20030;-67
2021/07/02 08:34:42;;;;;;;8.13;6.03;;;;;;;28.04;46.62;96385.75;5015175;28;20041;-62
2021/07/02 08:37:07;;;;;;;11.00;6.72;;;;;;;27.92;48.83;96366.97;5016664;28;20102;-63
2021/07/02 08:39:33;;;;;;;13.90;7.45;;;;;;;27.92;47.59;96409.69;5004918;28;20152;-63
2021/07/02 08:42:02;;;;;;;11.77;8.00;;;;;;;27.92;49.43;96392.59;5011039;28;20107;-63
2021/07/02 08:44:27;;;;;;;10.77;7.53;;;;;;;27.73;49.84;96388.47;5022395;28;20595;-64
2021/07/02 08:46:53;;;;;;;11.68;8.68;;;;;;;27.85;48.85;96412.16;5015757;28;20037;-60
2021/07/02 08:49:20;;;;;;;8.65;7.75;;;;;;;28.40;50.27;96400.59;5011883;28;20033;-62
2021/07/02 08:51:45;;;;;;;12.98;8.25;;;;;;;28.87;47.70;96395.06;5006051;28;20034;-66
2021/07/02 08:54:14;;;;;;;13.65;7.35;;;;;;;28.54;50.15;96402.56;5022508;28;20029;-61
2021/07/02 08:56:56;;;;;;;16.20;7.88;;;;;;;28.60;49.90;96409.88;5002656;28;20030;-61
2021/07/02 08:59:23;;;;;;;7.88;6.82;;;;;;;28.11;49.15;96413.00;5003110;28;20042;-63
2021/07/02 09:01:49;;;;;;;9.02;6.68;;;;;;;27.85;48.53;96424.31;5003287;28;20040;-66
2021/07/02 09:04:23;;;;;;;13.07;8.02;;;;;;;28.27;49.52;96405.91;5004206;28;20037;-62
2021/07/02 09:07:08;;;;;;;16.77;10.52;;;;;;;28.51;47.42;96329.47;5014387;28;20072;-61
2021/07/02 09:09:57;;;;;;;11.75;8.40;;;;;;;29.34;46.97;96399.28;5008543;28;20045;-62
2021/07/02 09:12:27;;;;;;;12.57;7.57;;;;;;;29.47;45.97;96396.78;5009571;28;20079;-59
2021/07/02 09:15:13;;;;;;;27.05;10.60;;;;;;;28.94;44.40;96359.59;5015916;28;20528;-64
2021/07/02 09:17:51;;;;;;;10.60;7.00;;;;;;;29.67;44.17;96393.78;5027476;28;20095;-64
2021/07/02 09:20:23;;;;;;;10.40;7.10;;;;;;;28.84;47.57;96395.31;5014403;28;20082;-73
2021/07/02 09:22:56;;;;;;;9.98;7.78;;;;;;;28.29;46.75;96349.22;5019006;28;20727;-67
2021/07/02 09:25:23;;;;;;;17.75;9.95;;;;;;;28.97;46.78;96398.53;5010969;28;20034;-61
2021/07/02 09:27:50;;;;;;;10.73;7.15;;;;;;;28.32;46.36;96400.28;5009834;28;20047;-62
2021/07/02 09:30:18;;;;;;;6.72;5.88;;;;;;;27.15;48.22;96279.84;5014817;28;20045;-62
2021/07/02 09:32:47;;;;;;;9.02;5.85;;;;;;;27.44;47.64;96293.97;5011439;28;20104;-61
2021/07/02 09:35:16;;;;;;;7.72;5.07;;;;;;;27.37;48.92;96389.06;5013617;28;20043;-62
2021/07/02 09:37:45;;;;;;;10.05;5.75;;;;;;;26.92;49.86;96318.59;5008501;28;20124;-62
2021/07/02 09:40:19;;;;;;;6.97;5.75;;;;;;;27.87;48.13;96369.72;5024174;28;20033;-62
2021/07/02 09:42:45;;;;;;;7.90;5.10;;;;;;;28.05;47.27;96390.16;5018915;28;20034;-63
2021/07/02 09:45:19;;;;;;;7.45;4.85;;;;;;;28.09;48.80;96392.78;5004187;28;20034;-62
2021/07/02 09:47:45;;;;;;;6.35;5.13;;;;;;;27.85;48.92;96401.53;5002188;28;20029;-62
2021/07/02 09:50:19;;;;;;;5.35;4.80;;;;;;;28.08;48.26;96386.31;5002359;28;20034;-62
2021/07/02 09:52:55;;;;;;;9.00;6.20;;;;;;;28.02;48.91;96394.03;5003811;28;20117;-63
2021/07/02 09:55:29;;;;;;;5.80;5.13;;;;;;;28.70;47.07;96396.22;5004140;28;20049;-63
2021/07/02 09:58:02;;;;;;;4.95;4.38;;;;;;;28.86;45.65;96393.53;5002618;28;20095;-62
2021/07/02 10:00:28;;;;;;;4.95;4.30;;;;;;;28.94;46.29;96399.53;5002238;28;20631;-61
2021/07/02 10:02:56;;;;;;;8.10;4.93;;;;;;;29.22;45.20;96391.97;5003563;28;20061;-62
2021/07/02 10:05:22;;;;;;;5.50;4.15;;;;;;;29.02;42.87;96350.06;5001851;28;20641;-64
2021/07/02 10:08:02;;;;;;;4.75;4.35;;;;;;;28.79;45.58;96393.19;5003742;28;20046;-62
2021/07/02 10:10:29;;;;;;;6.68;4.82;;;;;;;28.18;45.87;96338.50;5002093;28;20049;-63
2021/07/02 10:12:57;;;;;;;5.95;4.18;;;;;;;28.39;46.54;96379.09;5005776;28;20040;-61
2021/07/02 10:15:23;;;;;;;7.72;4.18;;;;;;;27.85;44.87;96225.03;5003427;28;20100;-61
2021/07/02 10:17:49;;;;;;;6.93;4.93;;;;;;;28.96;45.28;96392.03;5003351;28;20057;-64
2021/07/02 10:20:16;;;;;;;5.45;4.05;;;;;;;28.74;45.26;96325.53;5025256;28;20029;-64
2021/07/02 10:22:44;;;;;;;5.97;5.03;;;;;;;29.54;44.34;96373.47;5017711;28;20057;-63
2021/07/02 10:25:12;;;;;;;7.90;4.57;;;;;;;29.57;45.40;96395.28;5013062;28;20046;-63
2021/07/02 10:27:41;;;;;;;6.70;4.68;;;;;;;29.06;44.77;96349.81;5006694;28;20048;-62
2021/07/02 10:30:09;;;;;;;5.60;5.10;;;;;;;29.43;44.87;96356.28;5015777;28;20041;-64
2021/07/02 10:32:37;;;;;;;6.53;5.03;;;;;;;27.84;44.35;96149.44;5010816;28;20077;-66
2021/07/02 10:35:05;;;;;;;4.82;4.43;;;;;;;29.56;45.06;96390.84;5011531;28;20037;-64
2021/07/02 10:37:31;;;;;;;7.35;6.45;;;;;;;29.39;44.79;96361.44;5017264;28;20082;-64
2021/07/02 10:40:00;;;;;;;8.73;4.43;;;;;;;28.75;45.69;96367.00;5004949;28;20053;-65
2021/07/02 10:42:26;;;;;;;6.00;4.63;;;;;;;28.47;45.38;96395.22;5008282;28;20037;-67
2021/07/02 10:44:55;;;;;;;5.68;5.18;;;;;;;28.20;46.42;96394.97;5021783;28;20526;-63
2021/07/02 10:47:22;;;;;;;5.47;4.40;;;;;;;28.25;46.54;96360.81;5005879;28;20389;-66
2021/07/02 10:49:48;;;;;;;4.97;4.57;;;;;;;28.94;45.50;96368.97;5013997;28;20103;-63
2021/07/02 10:52:28;;;;;;;6.28;4.93;;;;;;;28.94;46.79;96376.72;5024515;28;20080;-63
2021/07/02 10:54:55;;;;;;;6.80;5.00;;;;;;;29.12;46.42;96388.53;5010977;28;20048;-67
2021/07/02 10:57:24;;;;;;;5.32;4.70;;;;;;;29.30;43.98;96381.66;5004809;28;20504;-64
2021/07/02 10:59:50;;;;;;;5.13;4.60;;;;;;;28.55;46.19;96389.91;5006364;28;20038;-61
2021/07/02 11:02:23;;;;;;;6.43;5.30;;;;;;;28.43;45.08;96382.50;5006964;28;20096;-62
2021/07/02 11:04:51;;;;;;;5.30;4.80;;;;;;;28.53;46.96;96376.16;5016159;28;20510;-59
2021/07/02 11:07:22;;;;;;;8.30;4.80;;;;;;;28.44;46.06;96366.97;5015562;28;20065;-62
2021/07/02 11:09:55;;;;;;;8.05;4.72;;;;;;;28.66;46.41;96362.25;5022242;28;20523;-63
2021/07/02 11:12:20;;;;;;;5.35;4.85;;;;;;;28.56;46.37;96371.50;5006295;28;20040;-61
2021/07/02 11:14:55;;;;;;;6.57;4.32;;;;;;;29.12;44.05;96353.50;5006240;28;20373;-62
2021/07/02 11:17:31;;;;;;;8.10;4.28;;;;;;;29.48;42.48;96364.09;5006152;28;20056;-63
2021/07/02 11:20:06;;;;;;;5.43;3.47;;;;;;;29.23;42.39;96359.28;5006872;28;20045;-62
2021/07/02 11:22:55;;;;;;;5.10;4.00;;;;;;;29.32;44.37;96353.38;5006311;28;20110;-62
2021/07/02 11:25:44;;;;;;;4.30;3.65;;;;;;;29.14;42.88;96353.78;4996389;28;20050;-63